sensor_id;sensor_type;location;lat;lon;timestamp;P1;durP1;ratioP1;P2;durP2;ratioP2
81386;SDS011;70842;50.744;7.114;2023-11-18T00:00:52;25.73;;;18.88;;
81386;SDS011;70842;50.744;7.114;2023-11-18T00:03:19;24.85;;;14.60;;
81386;SDS011;70842;50.744;7.114;2023-11-18T00:05:45;21.70;;;14.05;;
81386;SDS011;70842;50.744;7.114;2023-11-18T00:08:12;25.25;;;17.02;;
81386;SDS011;70842;50.744;7.114;2023-11-18T00:10:39;24.48;;;17.88;;
81386;SDS011;70842;50.744;7.114;2023-11-18T00:13:05;27.55;;;16.60;;
81386;SDS011;70842;50.744;7.114;2023-11-18T00:15:32;23.88;;;17.73;;
81386;SDS011;70842;50.744;7.114;2023-11-18T00:18:01;27.42;;;22.23;;
81386;SDS011;70842;50.744;7.114;2023-11-18T00:20:27;28.92;;;25.58;;
81386;SDS011;70842;50.744;7.114;2023-11-18T00:22:57;22.02;;;16.67;;
81386;SDS011;70842;50.744;7.114;2023-11-18T00:25:23;24.75;;;16.55;;
81386;SDS011;70842;50.744;7.114;2023-11-18T00:27:50;26.80;;;17.92;;
81386;SDS011;70842;50.744;7.114;2023-11-18T00:30:16;29.35;;;16.95;;
81386;SDS011;70842;50.744;7.114;2023-11-18T00:32:43;25.42;;;15.32;;
81386;SDS011;70842;50.744;7.114;2023-11-18T00:35:10;29.02;;;16.85;;
81386;SDS011;70842;50.744;7.114;2023-11-18T00:37:36;23.10;;;15.10;;
81386;SDS011;70842;50.744;7.114;2023-11-18T00:40:03;23.27;;;15.05;;
81386;SDS011;70842;50.744;7.114;2023-11-18T00:42:30;23.00;;;13.32;;
81386;SDS011;70842;50.744;7.114;2023-11-18T00:44:56;24.95;;;18.90;;
81386;SDS011;70842;50.744;7.114;2023-11-18T00:47:23;22.13;;;14.80;;
81386;SDS011;70842;50.744;7.114;2023-11-18T00:49:50;26.95;;;15.57;;
81386;SDS011;70842;50.744;7.114;2023-11-18T00:52:18;26.05;;;14.82;;
81386;SDS011;70842;50.744;7.114;2023-11-18T00:54:45;25.52;;;15.05;;
81386;SDS011;70842;50.744;7.114;2023-11-18T00:57:11;26.90;;;21.75;;
81386;SDS011;70842;50.744;7.114;2023-11-18T00:59:41;31.98;;;19.60;;
81386;SDS011;70842;50.744;7.114;2023-11-18T01:02:08;22.60;;;17.05;;
81386;SDS011;70842;50.744;7.114;2023-11-18T01:04:37;24.88;;;15.23;;
81386;SDS011;70842;50.744;7.114;2023-11-18T01:07:03;27.52;;;17.08;;
81386;SDS011;70842;50.744;7.114;2023-11-18T01:09:30;27.67;;;19.42;;
81386;SDS011;70842;50.744;7.114;2023-11-18T01:12:02;25.38;;;18.27;;
81386;SDS011;70842;50.744;7.114;2023-11-18T01:14:34;27.33;;;19.35;;
81386;SDS011;70842;50.744;7.114;2023-11-18T01:17:01;23.45;;;16.10;;
81386;SDS011;70842;50.744;7.114;2023-11-18T01:19:27;23.50;;;15.15;;
81386;SDS011;70842;50.744;7.114;2023-11-18T01:21:54;25.40;;;15.20;;
81386;SDS011;70842;50.744;7.114;2023-11-18T01:24:21;29.67;;;22.95;;
81386;SDS011;70842;50.744;7.114;2023-11-18T01:26:48;23.77;;;15.85;;
81386;SDS011;70842;50.744;7.114;2023-11-18T01:29:14;21.80;;;16.88;;
81386;SDS011;70842;50.744;7.114;2023-11-18T01:31:41;28.02;;;17.40;;
81386;SDS011;70842;50.744;7.114;2023-11-18T01:36:48;21.30;;;15.13;;
81386;SDS011;70842;50.744;7.114;2023-11-18T01:39:17;23.17;;;20.30;;
81386;SDS011;70842;50.744;7.114;2023-11-18T01:41:45;24.35;;;17.90;;
81386;SDS011;70842;50.744;7.114;2023-11-18T01:44:11;25.40;;;16.77;;
81386;SDS011;70842;50.744;7.114;2023-11-18T01:46:41;22.00;;;16.42;;
81386;SDS011;70842;50.744;7.114;2023-11-18T01:49:11;24.85;;;18.73;;
81386;SDS011;70842;50.744;7.114;2023-11-18T01:51:42;19.65;;;12.45;;
81386;SDS011;70842;50.744;7.114;2023-11-18T01:54:12;20.88;;;14.82;;
81386;SDS011;70842;50.744;7.114;2023-11-18T01:56:43;20.80;;;15.60;;
81386;SDS011;70842;50.744;7.114;2023-11-18T01:59:12;23.65;;;18.10;;
81386;SDS011;70842;50.744;7.114;2023-11-18T02:01:46;26.05;;;19.60;;
81386;SDS011;70842;50.744;7.114;2023-11-18T02:04:17;26.48;;;17.05;;
81386;SDS011;70842;50.744;7.114;2023-11-18T02:06:47;24.05;;;19.23;;
81386;SDS011;70842;50.744;7.114;2023-11-18T02:09:15;22.08;;;14.55;;
81386;SDS011;70842;50.744;7.114;2023-11-18T02:11:47;20.73;;;14.65;;
81386;SDS011;70842;50.744;7.114;2023-11-18T02:14:21;20.98;;;12.55;;
81386;SDS011;70842;50.744;7.114;2023-11-18T02:16:52;22.63;;;16.50;;
81386;SDS011;70842;50.744;7.114;2023-11-18T02:19:20;20.83;;;13.98;;
81386;SDS011;70842;50.744;7.114;2023-11-18T02:21:48;24.05;;;14.32;;
81386;SDS011;70842;50.744;7.114;2023-11-18T02:24:28;21.30;;;13.48;;
81386;SDS011;70842;50.744;7.114;2023-11-18T02:26:57;24.27;;;15.40;;
81386;SDS011;70842;50.744;7.114;2023-11-18T02:29:25;22.63;;;14.70;;
81386;SDS011;70842;50.744;7.114;2023-11-18T02:31:52;21.27;;;13.75;;
81386;SDS011;70842;50.744;7.114;2023-11-18T02:34:27;23.27;;;14.45;;
81386;SDS011;70842;50.744;7.114;2023-11-18T02:36:56;19.40;;;14.60;;
81386;SDS011;70842;50.744;7.114;2023-11-18T02:39:31;21.35;;;14.80;;
81386;SDS011;70842;50.744;7.114;2023-11-18T02:42:04;19.80;;;15.00;;
81386;SDS011;70842;50.744;7.114;2023-11-18T02:44:36;22.50;;;13.85;;
81386;SDS011;70842;50.744;7.114;2023-11-18T02:47:04;21.67;;;13.52;;
81386;SDS011;70842;50.744;7.114;2023-11-18T02:49:32;20.38;;;14.18;;
81386;SDS011;70842;50.744;7.114;2023-11-18T02:52:01;20.60;;;14.63;;
81386;SDS011;70842;50.744;7.114;2023-11-18T02:54:27;22.27;;;14.65;;
81386;SDS011;70842;50.744;7.114;2023-11-18T02:56:54;21.13;;;14.18;;
81386;SDS011;70842;50.744;7.114;2023-11-18T02:59:21;19.90;;;13.05;;
81386;SDS011;70842;50.744;7.114;2023-11-18T03:01:47;20.52;;;13.75;;
81386;SDS011;70842;50.744;7.114;2023-11-18T03:04:14;22.92;;;14.77;;
81386;SDS011;70842;50.744;7.114;2023-11-18T03:06:41;23.35;;;15.15;;
81386;SDS011;70842;50.744;7.114;2023-11-18T03:09:08;23.80;;;16.15;;
81386;SDS011;70842;50.744;7.114;2023-11-18T03:11:36;21.25;;;16.50;;
81386;SDS011;70842;50.744;7.114;2023-11-18T03:14:03;22.60;;;13.77;;
81386;SDS011;70842;50.744;7.114;2023-11-18T03:16:31;22.75;;;12.50;;
81386;SDS011;70842;50.744;7.114;2023-11-18T03:18:57;25.05;;;13.75;;
81386;SDS011;70842;50.744;7.114;2023-11-18T03:21:25;20.00;;;13.80;;
81386;SDS011;70842;50.744;7.114;2023-11-18T03:23:52;22.20;;;16.58;;
81386;SDS011;70842;50.744;7.114;2023-11-18T03:26:19;21.58;;;13.07;;
81386;SDS011;70842;50.744;7.114;2023-11-18T03:28:46;21.13;;;14.93;;
81386;SDS011;70842;50.744;7.114;2023-11-18T03:31:12;23.65;;;13.75;;
81386;SDS011;70842;50.744;7.114;2023-11-18T03:33:39;26.73;;;13.80;;
81386;SDS011;70842;50.744;7.114;2023-11-18T03:36:06;20.95;;;14.50;;
81386;SDS011;70842;50.744;7.114;2023-11-18T03:38:33;23.50;;;15.70;;
81386;SDS011;70842;50.744;7.114;2023-11-18T03:41:00;21.15;;;15.13;;
81386;SDS011;70842;50.744;7.114;2023-11-18T03:43:26;21.17;;;14.32;;
81386;SDS011;70842;50.744;7.114;2023-11-18T03:45:53;22.70;;;15.95;;
81386;SDS011;70842;50.744;7.114;2023-11-18T03:48:23;21.98;;;14.13;;
81386;SDS011;70842;50.744;7.114;2023-11-18T03:50:50;22.88;;;17.52;;
81386;SDS011;70842;50.744;7.114;2023-11-18T03:53:16;19.25;;;14.60;;
81386;SDS011;70842;50.744;7.114;2023-11-18T03:55:43;23.42;;;17.10;;
81386;SDS011;70842;50.744;7.114;2023-11-18T03:58:09;21.58;;;16.15;;
81386;SDS011;70842;50.744;7.114;2023-11-18T04:00:35;20.20;;;15.10;;
81386;SDS011;70842;50.744;7.114;2023-11-18T04:03:02;19.98;;;15.02;;
81386;SDS011;70842;50.744;7.114;2023-11-18T04:05:29;22.23;;;14.98;;
81386;SDS011;70842;50.744;7.114;2023-11-18T04:07:58;21.83;;;17.00;;
81386;SDS011;70842;50.744;7.114;2023-11-18T04:10:24;19.98;;;13.85;;
81386;SDS011;70842;50.744;7.114;2023-11-18T04:12:50;21.60;;;15.52;;
81386;SDS011;70842;50.744;7.114;2023-11-18T04:15:17;23.42;;;17.20;;
81386;SDS011;70842;50.744;7.114;2023-11-18T04:17:43;19.65;;;13.05;;
81386;SDS011;70842;50.744;7.114;2023-11-18T04:20:11;20.85;;;15.60;;
81386;SDS011;70842;50.744;7.114;2023-11-18T04:22:38;24.30;;;21.83;;
81386;SDS011;70842;50.744;7.114;2023-11-18T04:25:08;18.27;;;14.70;;
81386;SDS011;70842;50.744;7.114;2023-11-18T04:27:39;20.30;;;16.60;;
81386;SDS011;70842;50.744;7.114;2023-11-18T04:30:10;24.00;;;17.80;;
81386;SDS011;70842;50.744;7.114;2023-11-18T04:32:39;19.35;;;14.02;;
81386;SDS011;70842;50.744;7.114;2023-11-18T04:35:08;21.00;;;17.55;;
81386;SDS011;70842;50.744;7.114;2023-11-18T04:37:36;23.10;;;16.20;;
81386;SDS011;70842;50.744;7.114;2023-11-18T04:40:02;19.35;;;13.80;;
81386;SDS011;70842;50.744;7.114;2023-11-18T04:42:30;16.23;;;11.90;;
81386;SDS011;70842;50.744;7.114;2023-11-18T04:44:57;22.38;;;15.10;;
81386;SDS011;70842;50.744;7.114;2023-11-18T04:47:23;25.35;;;19.27;;
81386;SDS011;70842;50.744;7.114;2023-11-18T04:49:51;17.83;;;12.27;;
81386;SDS011;70842;50.744;7.114;2023-11-18T04:52:18;19.80;;;14.82;;
81386;SDS011;70842;50.744;7.114;2023-11-18T04:54:45;18.73;;;15.25;;
81386;SDS011;70842;50.744;7.114;2023-11-18T04:57:14;19.83;;;14.85;;
81386;SDS011;70842;50.744;7.114;2023-11-18T04:59:41;20.58;;;12.82;;
81386;SDS011;70842;50.744;7.114;2023-11-18T05:02:09;16.27;;;13.40;;
81386;SDS011;70842;50.744;7.114;2023-11-18T05:04:36;17.90;;;13.35;;
81386;SDS011;70842;50.744;7.114;2023-11-18T05:07:02;19.45;;;13.55;;
81386;SDS011;70842;50.744;7.114;2023-11-18T05:09:30;19.30;;;13.65;;
81386;SDS011;70842;50.744;7.114;2023-11-18T05:11:57;18.90;;;13.95;;
81386;SDS011;70842;50.744;7.114;2023-11-18T05:14:24;21.58;;;19.30;;
81386;SDS011;70842;50.744;7.114;2023-11-18T05:16:52;17.20;;;14.32;;
81386;SDS011;70842;50.744;7.114;2023-11-18T05:19:18;20.67;;;13.95;;
81386;SDS011;70842;50.744;7.114;2023-11-18T05:21:45;20.95;;;13.35;;
81386;SDS011;70842;50.744;7.114;2023-11-18T05:24:15;19.50;;;12.98;;
81386;SDS011;70842;50.744;7.114;2023-11-18T05:26:41;20.88;;;15.20;;
81386;SDS011;70842;50.744;7.114;2023-11-18T05:29:08;19.75;;;11.85;;
81386;SDS011;70842;50.744;7.114;2023-11-18T05:31:34;19.40;;;14.45;;
81386;SDS011;70842;50.744;7.114;2023-11-18T05:34:01;20.98;;;17.63;;
81386;SDS011;70842;50.744;7.114;2023-11-18T05:36:29;20.00;;;14.18;;
81386;SDS011;70842;50.744;7.114;2023-11-18T05:39:03;17.40;;;15.45;;
81386;SDS011;70842;50.744;7.114;2023-11-18T05:41:31;19.23;;;14.02;;
81386;SDS011;70842;50.744;7.114;2023-11-18T05:43:58;22.08;;;14.50;;
81386;SDS011;70842;50.744;7.114;2023-11-18T05:46:25;19.00;;;14.13;;
81386;SDS011;70842;50.744;7.114;2023-11-18T05:48:55;18.95;;;13.52;;
81386;SDS011;70842;50.744;7.114;2023-11-18T05:51:22;20.15;;;13.70;;
81386;SDS011;70842;50.744;7.114;2023-11-18T05:53:50;17.15;;;15.07;;
81386;SDS011;70842;50.744;7.114;2023-11-18T05:56:18;18.85;;;13.07;;
81386;SDS011;70842;50.744;7.114;2023-11-18T05:58:45;19.05;;;14.23;;
81386;SDS011;70842;50.744;7.114;2023-11-18T06:01:13;20.25;;;13.98;;
81386;SDS011;70842;50.744;7.114;2023-11-18T06:03:41;18.70;;;15.35;;
81386;SDS011;70842;50.744;7.114;2023-11-18T06:06:08;20.35;;;15.95;;
81386;SDS011;70842;50.744;7.114;2023-11-18T06:08:39;19.85;;;16.15;;
81386;SDS011;70842;50.744;7.114;2023-11-18T06:11:08;17.90;;;13.52;;
81386;SDS011;70842;50.744;7.114;2023-11-18T06:13:53;17.30;;;13.23;;
81386;SDS011;70842;50.744;7.114;2023-11-18T06:16:23;18.33;;;12.93;;
81386;SDS011;70842;50.744;7.114;2023-11-18T06:18:52;19.83;;;15.25;;
81386;SDS011;70842;50.744;7.114;2023-11-18T06:21:23;17.05;;;13.85;;
81386;SDS011;70842;50.744;7.114;2023-11-18T06:23:53;21.05;;;15.30;;
81386;SDS011;70842;50.744;7.114;2023-11-18T06:26:21;19.73;;;16.35;;
81386;SDS011;70842;50.744;7.114;2023-11-18T06:28:48;16.70;;;14.02;;
81386;SDS011;70842;50.744;7.114;2023-11-18T06:31:15;16.42;;;14.60;;
81386;SDS011;70842;50.744;7.114;2023-11-18T06:33:42;15.73;;;13.50;;
81386;SDS011;70842;50.744;7.114;2023-11-18T06:38:40;19.13;;;15.88;;
81386;SDS011;70842;50.744;7.114;2023-11-18T06:41:07;16.52;;;11.48;;
81386;SDS011;70842;50.744;7.114;2023-11-18T06:43:39;16.52;;;12.70;;
81386;SDS011;70842;50.744;7.114;2023-11-18T06:46:22;16.35;;;13.07;;
81386;SDS011;70842;50.744;7.114;2023-11-18T06:48:49;19.67;;;17.60;;
81386;SDS011;70842;50.744;7.114;2023-11-18T06:51:16;18.10;;;14.95;;
81386;SDS011;70842;50.744;7.114;2023-11-18T06:53:42;16.80;;;14.52;;
81386;SDS011;70842;50.744;7.114;2023-11-18T06:56:10;19.33;;;12.55;;
81386;SDS011;70842;50.744;7.114;2023-11-18T06:58:40;17.85;;;13.43;;
81386;SDS011;70842;50.744;7.114;2023-11-18T07:01:07;18.45;;;14.68;;
81386;SDS011;70842;50.744;7.114;2023-11-18T07:03:34;18.23;;;16.33;;
81386;SDS011;70842;50.744;7.114;2023-11-18T07:06:00;19.90;;;13.10;;
81386;SDS011;70842;50.744;7.114;2023-11-18T07:08:27;17.73;;;12.57;;
81386;SDS011;70842;50.744;7.114;2023-11-18T07:10:53;24.85;;;22.45;;
81386;SDS011;70842;50.744;7.114;2023-11-18T07:13:20;18.77;;;12.95;;
81386;SDS011;70842;50.744;7.114;2023-11-18T07:15:49;17.05;;;13.32;;
81386;SDS011;70842;50.744;7.114;2023-11-18T07:18:17;16.40;;;14.18;;
81386;SDS011;70842;50.744;7.114;2023-11-18T07:20:43;16.63;;;12.73;;
81386;SDS011;70842;50.744;7.114;2023-11-18T07:23:10;15.45;;;12.98;;
81386;SDS011;70842;50.744;7.114;2023-11-18T07:25:36;27.38;;;25.17;;
81386;SDS011;70842;50.744;7.114;2023-11-18T07:28:03;19.23;;;15.07;;
81386;SDS011;70842;50.744;7.114;2023-11-18T07:30:31;17.63;;;14.13;;
81386;SDS011;70842;50.744;7.114;2023-11-18T07:32:57;14.82;;;11.73;;
81386;SDS011;70842;50.744;7.114;2023-11-18T07:35:26;16.10;;;13.65;;
81386;SDS011;70842;50.744;7.114;2023-11-18T07:37:53;16.13;;;14.40;;
81386;SDS011;70842;50.744;7.114;2023-11-18T07:40:19;17.25;;;15.45;;
81386;SDS011;70842;50.744;7.114;2023-11-18T07:42:54;17.77;;;13.23;;
81386;SDS011;70842;50.744;7.114;2023-11-18T07:45:27;16.02;;;11.30;;
81386;SDS011;70842;50.744;7.114;2023-11-18T07:47:55;15.13;;;11.07;;
81386;SDS011;70842;50.744;7.114;2023-11-18T07:50:21;23.27;;;12.30;;
81386;SDS011;70842;50.744;7.114;2023-11-18T07:52:48;13.15;;;11.77;;
81386;SDS011;70842;50.744;7.114;2023-11-18T07:55:17;15.95;;;10.98;;
81386;SDS011;70842;50.744;7.114;2023-11-18T07:57:44;15.55;;;11.30;;
81386;SDS011;70842;50.744;7.114;2023-11-18T08:00:11;16.25;;;11.32;;
81386;SDS011;70842;50.744;7.114;2023-11-18T08:02:38;18.80;;;16.90;;
81386;SDS011;70842;50.744;7.114;2023-11-18T08:05:05;14.77;;;11.18;;
81386;SDS011;70842;50.744;7.114;2023-11-18T08:07:39;12.57;;;10.77;;
81386;SDS011;70842;50.744;7.114;2023-11-18T08:10:06;13.80;;;11.13;;
81386;SDS011;70842;50.744;7.114;2023-11-18T08:12:39;13.85;;;11.60;;
81386;SDS011;70842;50.744;7.114;2023-11-18T08:17:35;14.98;;;10.32;;
81386;SDS011;70842;50.744;7.114;2023-11-18T08:20:02;18.58;;;15.23;;
81386;SDS011;70842;50.744;7.114;2023-11-18T08:22:41;16.90;;;11.73;;
81386;SDS011;70842;50.744;7.114;2023-11-18T08:25:12;11.55;;;10.30;;
81386;SDS011;70842;50.744;7.114;2023-11-18T08:27:39;14.98;;;12.93;;
81386;SDS011;70842;50.744;7.114;2023-11-18T08:30:07;18.90;;;17.02;;
81386;SDS011;70842;50.744;7.114;2023-11-18T08:32:37;14.88;;;13.35;;
81386;SDS011;70842;50.744;7.114;2023-11-18T08:35:05;13.95;;;11.98;;
81386;SDS011;70842;50.744;7.114;2023-11-18T08:37:36;16.73;;;14.35;;
81386;SDS011;70842;50.744;7.114;2023-11-18T08:40:03;13.90;;;11.60;;
81386;SDS011;70842;50.744;7.114;2023-11-18T08:42:48;18.85;;;17.25;;
81386;SDS011;70842;50.744;7.114;2023-11-18T08:45:21;14.65;;;11.50;;
81386;SDS011;70842;50.744;7.114;2023-11-18T08:47:59;13.80;;;12.38;;
81386;SDS011;70842;50.744;7.114;2023-11-18T08:50:35;11.68;;;10.68;;
81386;SDS011;70842;50.744;7.114;2023-11-18T08:53:02;12.10;;;10.30;;
81386;SDS011;70842;50.744;7.114;2023-11-18T08:55:32;12.55;;;10.05;;
81386;SDS011;70842;50.744;7.114;2023-11-18T08:58:07;12.27;;;9.93;;
81386;SDS011;70842;50.744;7.114;2023-11-18T09:00:46;13.68;;;11.80;;
81386;SDS011;70842;50.744;7.114;2023-11-18T09:03:21;13.80;;;10.65;;
81386;SDS011;70842;50.744;7.114;2023-11-18T09:05:57;17.77;;;16.08;;
81386;SDS011;70842;50.744;7.114;2023-11-18T09:10:58;12.90;;;9.68;;
81386;SDS011;70842;50.744;7.114;2023-11-18T09:13:26;14.70;;;10.85;;
81386;SDS011;70842;50.744;7.114;2023-11-18T09:15:58;16.23;;;11.77;;
81386;SDS011;70842;50.744;7.114;2023-11-18T09:18:29;13.77;;;10.73;;
81386;SDS011;70842;50.744;7.114;2023-11-18T09:20:59;19.10;;;12.60;;
81386;SDS011;70842;50.744;7.114;2023-11-18T09:23:28;13.65;;;11.18;;
81386;SDS011;70842;50.744;7.114;2023-11-18T09:25:55;13.60;;;12.20;;
81386;SDS011;70842;50.744;7.114;2023-11-18T09:28:23;13.30;;;11.13;;
81386;SDS011;70842;50.744;7.114;2023-11-18T09:30:50;16.73;;;12.60;;
81386;SDS011;70842;50.744;7.114;2023-11-18T09:33:20;12.82;;;9.02;;
81386;SDS011;70842;50.744;7.114;2023-11-18T09:36:06;15.93;;;13.13;;
81386;SDS011;70842;50.744;7.114;2023-11-18T09:38:34;18.60;;;16.83;;
81386;SDS011;70842;50.744;7.114;2023-11-18T09:41:05;12.70;;;11.40;;
81386;SDS011;70842;50.744;7.114;2023-11-18T09:43:45;12.05;;;10.20;;
81386;SDS011;70842;50.744;7.114;2023-11-18T09:46:16;17.98;;;16.15;;
81386;SDS011;70842;50.744;7.114;2023-11-18T09:48:50;13.27;;;11.38;;
81386;SDS011;70842;50.744;7.114;2023-11-18T09:51:20;16.75;;;15.15;;
81386;SDS011;70842;50.744;7.114;2023-11-18T09:53:53;14.57;;;13.07;;
81386;SDS011;70842;50.744;7.114;2023-11-18T09:56:30;13.07;;;11.77;;
81386;SDS011;70842;50.744;7.114;2023-11-18T09:59:15;12.18;;;10.65;;
81386;SDS011;70842;50.744;7.114;2023-11-18T10:01:48;11.45;;;9.40;;
81386;SDS011;70842;50.744;7.114;2023-11-18T10:04:20;19.60;;;13.98;;
81386;SDS011;70842;50.744;7.114;2023-11-18T10:06:47;13.55;;;12.27;;
81386;SDS011;70842;50.744;7.114;2023-11-18T10:09:16;12.63;;;11.32;;
81386;SDS011;70842;50.744;7.114;2023-11-18T10:11:44;13.85;;;12.43;;
81386;SDS011;70842;50.744;7.114;2023-11-18T10:14:14;12.48;;;11.18;;
81386;SDS011;70842;50.744;7.114;2023-11-18T10:16:44;12.15;;;10.82;;
81386;SDS011;70842;50.744;7.114;2023-11-18T10:19:15;12.57;;;11.32;;
81386;SDS011;70842;50.744;7.114;2023-11-18T10:24:15;13.48;;;12.10;;
81386;SDS011;70842;50.744;7.114;2023-11-18T10:26:45;12.20;;;9.00;;
81386;SDS011;70842;50.744;7.114;2023-11-18T10:29:24;14.05;;;12.77;;
81386;SDS011;70842;50.744;7.114;2023-11-18T10:32:04;13.32;;;10.68;;
81386;SDS011;70842;50.744;7.114;2023-11-18T10:34:35;12.75;;;11.48;;
81386;SDS011;70842;50.744;7.114;2023-11-18T10:37:02;11.55;;;10.35;;
81386;SDS011;70842;50.744;7.114;2023-11-18T10:39:29;10.40;;;8.95;;
81386;SDS011;70842;50.744;7.114;2023-11-18T10:42:00;14.82;;;13.40;;
81386;SDS011;70842;50.744;7.114;2023-11-18T10:46:56;12.02;;;10.80;;
81386;SDS011;70842;50.744;7.114;2023-11-18T10:49:28;16.10;;;14.88;;
81386;SDS011;70842;50.744;7.114;2023-11-18T10:51:55;10.10;;;8.85;;
81386;SDS011;70842;50.744;7.114;2023-11-18T10:54:23;10.82;;;9.48;;
81386;SDS011;70842;50.744;7.114;2023-11-18T10:56:52;11.57;;;10.40;;
81386;SDS011;70842;50.744;7.114;2023-11-18T10:59:22;9.48;;;8.25;;
81386;SDS011;70842;50.744;7.114;2023-11-18T11:01:49;13.88;;;12.60;;
81386;SDS011;70842;50.744;7.114;2023-11-18T11:04:16;10.73;;;9.40;;
81386;SDS011;70842;50.744;7.114;2023-11-18T11:06:46;10.55;;;9.63;;
81386;SDS011;70842;50.744;7.114;2023-11-18T11:09:23;9.85;;;8.68;;
81386;SDS011;70842;50.744;7.114;2023-11-18T11:11:57;8.88;;;7.82;;
81386;SDS011;70842;50.744;7.114;2023-11-18T11:14:34;12.93;;;11.18;;
81386;SDS011;70842;50.744;7.114;2023-11-18T11:17:08;10.70;;;9.65;;
81386;SDS011;70842;50.744;7.114;2023-11-18T11:19:55;11.38;;;10.27;;
81386;SDS011;70842;50.744;7.114;2023-11-18T11:22:38;9.40;;;8.52;;
81386;SDS011;70842;50.744;7.114;2023-11-18T11:25:22;13.93;;;12.80;;
81386;SDS011;70842;50.744;7.114;2023-11-18T11:27:55;13.00;;;11.82;;
81386;SDS011;70842;50.744;7.114;2023-11-18T11:30:28;10.57;;;8.70;;
81386;SDS011;70842;50.744;7.114;2023-11-18T11:33:23;13.38;;;12.07;;
81386;SDS011;70842;50.744;7.114;2023-11-18T11:35:55;9.68;;;7.50;;
81386;SDS011;70842;50.744;7.114;2023-11-18T11:38:24;10.40;;;9.30;;
81386;SDS011;70842;50.744;7.114;2023-11-18T11:40:54;10.00;;;8.27;;
81386;SDS011;70842;50.744;7.114;2023-11-18T11:43:21;10.60;;;8.38;;
81386;SDS011;70842;50.744;7.114;2023-11-18T11:45:49;10.73;;;7.78;;
81386;SDS011;70842;50.744;7.114;2023-11-18T11:48:18;11.68;;;9.93;;
81386;SDS011;70842;50.744;7.114;2023-11-18T11:50:57;10.02;;;7.90;;
81386;SDS011;70842;50.744;7.114;2023-11-18T11:53:32;8.60;;;6.68;;
81386;SDS011;70842;50.744;7.114;2023-11-18T11:56:05;14.85;;;8.82;;
81386;SDS011;70842;50.744;7.114;2023-11-18T11:58:36;11.23;;;9.48;;
81386;SDS011;70842;50.744;7.114;2023-11-18T12:03:45;10.70;;;8.43;;
81386;SDS011;70842;50.744;7.114;2023-11-18T12:06:20;12.43;;;8.65;;
81386;SDS011;70842;50.744;7.114;2023-11-18T12:08:53;10.30;;;8.23;;
81386;SDS011;70842;50.744;7.114;2023-11-18T12:11:19;11.68;;;10.48;;
81386;SDS011;70842;50.744;7.114;2023-11-18T12:14:08;11.50;;;9.77;;
81386;SDS011;70842;50.744;7.114;2023-11-18T12:16:59;10.40;;;9.40;;
81386;SDS011;70842;50.744;7.114;2023-11-18T12:19:31;12.38;;;9.45;;
81386;SDS011;70842;50.744;7.114;2023-11-18T12:22:02;9.40;;;7.32;;
81386;SDS011;70842;50.744;7.114;2023-11-18T12:24:39;10.05;;;9.00;;
81386;SDS011;70842;50.744;7.114;2023-11-18T12:27:09;9.70;;;8.18;;
81386;SDS011;70842;50.744;7.114;2023-11-18T12:29:42;14.93;;;13.50;;
81386;SDS011;70842;50.744;7.114;2023-11-18T12:32:11;12.20;;;11.00;;
81386;SDS011;70842;50.744;7.114;2023-11-18T12:34:52;12.48;;;11.02;;
81386;SDS011;70842;50.744;7.114;2023-11-18T12:37:33;10.40;;;9.40;;
81386;SDS011;70842;50.744;7.114;2023-11-18T12:40:50;11.35;;;9.90;;
81386;SDS011;70842;50.744;7.114;2023-11-18T12:43:18;14.77;;;13.48;;
81386;SDS011;70842;50.744;7.114;2023-11-18T12:49:03;11.68;;;10.55;;
81386;SDS011;70842;50.744;7.114;2023-11-18T12:51:31;11.23;;;10.15;;
81386;SDS011;70842;50.744;7.114;2023-11-18T12:54:00;11.02;;;9.82;;
81386;SDS011;70842;50.744;7.114;2023-11-18T12:56:31;9.23;;;6.97;;
81386;SDS011;70842;50.744;7.114;2023-11-18T12:58:59;10.90;;;8.48;;
81386;SDS011;70842;50.744;7.114;2023-11-18T13:01:25;12.25;;;11.07;;
81386;SDS011;70842;50.744;7.114;2023-11-18T13:03:53;12.02;;;9.13;;
81386;SDS011;70842;50.744;7.114;2023-11-18T13:06:20;9.43;;;8.48;;
81386;SDS011;70842;50.744;7.114;2023-11-18T13:08:51;11.70;;;10.43;;
81386;SDS011;70842;50.744;7.114;2023-11-18T13:11:18;8.80;;;6.80;;
81386;SDS011;70842;50.744;7.114;2023-11-18T13:13:45;8.18;;;7.05;;
81386;SDS011;70842;50.744;7.114;2023-11-18T13:16:12;7.78;;;6.28;;
81386;SDS011;70842;50.744;7.114;2023-11-18T13:18:44;13.13;;;12.07;;
81386;SDS011;70842;50.744;7.114;2023-11-18T13:21:19;10.75;;;6.88;;
81386;SDS011;70842;50.744;7.114;2023-11-18T13:23:49;8.63;;;7.82;;
81386;SDS011;70842;50.744;7.114;2023-11-18T13:26:19;8.15;;;7.32;;
81386;SDS011;70842;50.744;7.114;2023-11-18T13:28:46;9.00;;;6.15;;
81386;SDS011;70842;50.744;7.114;2023-11-18T13:31:14;11.52;;;8.23;;
81386;SDS011;70842;50.744;7.114;2023-11-18T13:33:42;8.38;;;7.53;;
81386;SDS011;70842;50.744;7.114;2023-11-18T13:36:10;8.48;;;6.80;;
81386;SDS011;70842;50.744;7.114;2023-11-18T13:38:37;7.70;;;6.97;;
81386;SDS011;70842;50.744;7.114;2023-11-18T13:41:04;11.43;;;10.63;;
81386;SDS011;70842;50.744;7.114;2023-11-18T13:43:41;8.50;;;7.40;;
81386;SDS011;70842;50.744;7.114;2023-11-18T13:46:12;14.30;;;13.23;;
81386;SDS011;70842;50.744;7.114;2023-11-18T13:48:47;9.52;;;8.63;;
81386;SDS011;70842;50.744;7.114;2023-11-18T13:51:18;10.55;;;9.45;;
81386;SDS011;70842;50.744;7.114;2023-11-18T13:53:47;8.23;;;5.75;;
81386;SDS011;70842;50.744;7.114;2023-11-18T13:56:14;10.07;;;7.25;;
81386;SDS011;70842;50.744;7.114;2023-11-18T13:58:42;11.32;;;10.23;;
81386;SDS011;70842;50.744;7.114;2023-11-18T14:01:10;10.00;;;8.98;;
81386;SDS011;70842;50.744;7.114;2023-11-18T14:03:41;9.63;;;8.63;;
81386;SDS011;70842;50.744;7.114;2023-11-18T14:06:09;8.63;;;6.57;;
81386;SDS011;70842;50.744;7.114;2023-11-18T14:08:37;10.35;;;9.40;;
81386;SDS011;70842;50.744;7.114;2023-11-18T14:11:04;9.35;;;8.18;;
81386;SDS011;70842;50.744;7.114;2023-11-18T14:13:41;9.23;;;7.45;;
81386;SDS011;70842;50.744;7.114;2023-11-18T14:16:07;8.82;;;8.02;;
81386;SDS011;70842;50.744;7.114;2023-11-18T14:18:36;8.40;;;6.88;;
81386;SDS011;70842;50.744;7.114;2023-11-18T14:21:02;9.38;;;7.03;;
81386;SDS011;70842;50.744;7.114;2023-11-18T14:23:30;9.57;;;6.68;;
81386;SDS011;70842;50.744;7.114;2023-11-18T14:25:56;10.55;;;9.55;;
81386;SDS011;70842;50.744;7.114;2023-11-18T14:28:23;10.38;;;7.03;;
81386;SDS011;70842;50.744;7.114;2023-11-18T14:30:52;9.00;;;6.72;;
81386;SDS011;70842;50.744;7.114;2023-11-18T14:33:18;9.90;;;7.93;;
81386;SDS011;70842;50.744;7.114;2023-11-18T14:35:45;8.02;;;6.55;;
81386;SDS011;70842;50.744;7.114;2023-11-18T14:38:12;11.23;;;7.57;;
81386;SDS011;70842;50.744;7.114;2023-11-18T14:40:39;8.35;;;7.43;;
81386;SDS011;70842;50.744;7.114;2023-11-18T14:43:07;10.25;;;8.38;;
81386;SDS011;70842;50.744;7.114;2023-11-18T14:45:34;10.40;;;9.38;;
81386;SDS011;70842;50.744;7.114;2023-11-18T14:48:01;10.23;;;9.23;;
81386;SDS011;70842;50.744;7.114;2023-11-18T14:50:28;8.45;;;7.68;;
81386;SDS011;70842;50.744;7.114;2023-11-18T14:52:55;9.55;;;8.52;;
81386;SDS011;70842;50.744;7.114;2023-11-18T14:55:26;10.95;;;8.98;;
81386;SDS011;70842;50.744;7.114;2023-11-18T14:57:54;8.50;;;6.50;;
81386;SDS011;70842;50.744;7.114;2023-11-18T15:00:21;10.38;;;8.38;;